Ana Sayfa
METAR-TAF:

METAR-TAF

Havaalanları :

Reykjavik, İzlanda

Reykjavík Havalimanı

Enlem: 64-08N, Boylam: 021-54W, yükseklik: 54 m

Güncel hava durumu gözlemi

Rapor saat 19:00 UTC de 20 dakika önce yapıldı.
Rüzgar doğudan 8 kt
Sıcaklık -5°C
Nem 58%
Basınç 990 hPa
Görüş mesafesi 10 km veya daha fazla
1500 m altında bulut yok ve kümülonimbus yok

METAR: BIRK 181900Z 09008KT CAVOK M05/M12 Q0990 R13/990168

Saat: 19:20 (19:20 UTC)

Tahmin

Rapor saat 16:26 UTC de 2 saat ve 54 dakika önce yapıldı.
Ayın 18'si saat 18 UTC'den ayın 19'si saat 18 UTC'ye kadar geçerli Tahmin
Rüzgar doğudan 7 kt
Görüş mesafesi 10 km veya daha fazla
2000 ft yükseklikte az bulutlu

TAF: BIRK 181626Z 1818/1918 09007KT 9999 FEW020 TXM05/1915Z TNM09/1903Z

4.000'den fazla havaalanı için hava durumu gözlemleri ve tahminleri (METAR ve TAF raporları).

Kullanılabilir istasyonlar harita üzerinde sarı ve kırmızı noktalarla gösterilir.

İstasyonun adını görmek için fareyi noktanın üzerinde gezdirin.

Sonrasında hava gözlem ve tahminlerini görmek için tıklayın.

Haritayı değiştirmek için: yaklaştırmak için siyah artı işaretli yeşil düğmeye ve uzaklaştırmak için de eksi işaretli düğmeye hızla tıklayın; bitişik haritalar için yeşil okları kullanın.


METAR-TAF: